Time;durP1;ratioP1;P1;durP2;ratioP2;P2;SDS_P1;SDS_P2;PMS_P1;PMS_P2;Temp;Humidity;BMP_temperature;BMP_pressure;BME280_temperature;BME280_humidity;BME280_pressure;Samples;Min_cycle;Max_cycle;Signal;HPM_P1;HPM_P2
2022/04/17 00:00:07;;;;;;;3.70;2.40;;;;;;;3.60;74.38;100304.59;6244330;23;20091;-91
2022/04/17 00:02:39;;;;;;;5.13;3.15;;;;;;;3.61;73.23;100311.72;6243912;23;20077;-91
2022/04/17 00:05:14;;;;;;;4.10;2.55;;;;;;;3.57;72.88;100296.75;6244693;23;20063;-92
2022/04/17 00:07:47;;;;;;;3.20;2.70;;;;;;;3.52;74.52;100324.00;6244301;23;20020;-91
2022/04/17 00:10:27;;;;;;;5.00;2.50;;;;;;;3.30;77.30;100322.84;6244104;23;20016;-91
2022/04/17 00:12:55;;;;;;;3.92;2.83;;;;;;;3.25;76.99;100318.78;6243709;23;20020;-91
2022/04/17 00:15:26;;;;;;;2.88;2.33;;;;;;;3.19;77.98;100312.00;6243595;23;20474;-92
2022/04/17 00:17:56;;;;;;;5.40;2.60;;;;;;;3.05;78.65;100306.78;6243592;23;20016;-91
2022/04/17 00:20:25;;;;;;;4.90;2.40;;;;;;;3.15;78.95;100314.06;6244305;23;20031;-92
2022/04/17 00:22:53;;;;;;;3.15;2.58;;;;;;;3.22;77.61;100311.78;6243563;23;20044;-91
2022/04/17 00:25:26;;;;;;;4.22;2.80;;;;;;;3.19;76.04;100296.75;6243235;23;20020;-92
2022/04/17 00:27:55;;;;;;;3.35;2.03;;;;;;;3.15;73.97;100292.56;6243286;23;20016;-91
2022/04/17 00:30:27;;;;;;;3.60;2.17;;;;;;;3.31;71.31;100310.28;6243933;23;20016;-91
2022/04/17 00:32:54;;;;;;;5.15;2.63;;;;;;;3.24;72.61;100298.22;6243177;23;20020;-91
2022/04/17 00:35:25;;;;;;;2.58;2.00;;;;;;;3.13;74.69;100296.31;6242412;23;20024;-91
2022/04/17 00:40:52;;;;;;;8.13;2.65;;;;;;;3.12;74.15;100298.16;6243200;23;20074;-90
2022/04/17 00:43:26;;;;;;;3.03;1.90;;;;;;;3.12;73.67;100292.78;6245181;23;20028;-91
2022/04/17 00:45:54;;;;;;;2.67;2.08;;;;;;;3.23;72.84;100300.06;6244863;23;20387;-90
2022/04/17 00:48:30;;;;;;;2.45;2.03;;;;;;;3.26;72.61;100291.78;6243465;23;20095;-91
2022/04/17 00:51:09;;;;;;;2.13;1.88;;;;;;;3.15;71.98;100272.91;6246522;23;20023;-91
2022/04/17 00:53:49;;;;;;;;;;;;;;;;;;;;;
2022/04/17 00:56:17;;;;;;;4.57;1.83;;;;;;;3.10;72.73;100280.41;6247619;23;20452;-91
2022/04/17 00:58:48;;;;;;;2.22;1.88;;;;;;;3.09;70.10;100278.72;6248344;23;20444;-91
2022/04/17 01:01:24;;;;;;;6.03;2.13;;;;;;;3.22;70.55;100306.41;6261215;22;20020;-90
2022/04/17 01:03:53;;;;;;;3.65;1.98;;;;;;;3.04;70.20;100283.53;6267490;23;20061;-90
2022/04/17 01:06:30;;;;;;;5.03;2.13;;;;;;;3.12;69.22;100276.66;6269168;23;20032;-90
2022/04/17 01:08:57;;;;;;;2.70;1.92;;;;;;;3.04;68.45;100259.38;6270512;23;20042;-90
2022/04/17 01:11:27;;;;;;;4.32;2.30;;;;;;;3.11;68.81;100272.25;6266953;23;20020;-91
2022/04/17 01:14:03;;;;;;;2.38;2.05;;;;;;;3.14;69.02;100266.66;6260199;23;20024;-90
2022/04/17 01:16:38;;;;;;;2.88;1.60;;;;;;;3.18;68.14;100278.91;6270238;23;20020;-91
2022/04/17 01:19:14;;;;;;;6.70;2.08;;;;;;;3.12;68.10;100271.28;6270708;22;20024;-90
2022/04/17 01:21:51;;;;;;;2.10;1.73;;;;;;;3.07;68.76;100269.88;6270040;22;20016;-90
2022/04/17 01:27:14;;;;;;;4.55;2.03;;;;;;;3.18;67.89;100275.38;6270663;23;20031;-91
2022/04/17 01:29:48;;;;;;;2.35;2.08;;;;;;;3.13;67.44;100270.34;6255271;23;20031;-90
2022/04/17 01:32:19;;;;;;;2.03;1.83;;;;;;;3.05;67.59;100235.06;6243879;23;20016;-90
2022/04/17 01:34:48;;;;;;;3.20;2.20;;;;;;;3.25;68.22;100259.66;6243126;23;20040;-91
2022/04/17 01:37:19;;;;;;;2.03;1.73;;;;;;;3.14;68.28;100239.78;6243487;23;20116;-90
2022/04/17 01:39:46;;;;;;;3.03;2.08;;;;;;;3.15;68.44;100228.06;6240876;23;20255;-91
2022/04/17 01:42:17;;;;;;;2.30;2.10;;;;;;;3.27;67.54;100253.19;6242479;23;20078;-91
2022/04/17 01:44:46;;;;;;;2.38;2.10;;;;;;;3.22;67.81;100258.03;6242586;23;20023;-90
2022/04/17 01:47:13;;;;;;;2.83;2.20;;;;;;;3.18;67.38;100249.34;6243067;23;20024;-90
2022/04/17 01:49:42;;;;;;;3.78;2.05;;;;;;;3.25;67.25;100255.16;6242196;23;20031;-90
2022/04/17 01:52:15;;;;;;;5.35;3.85;;;;;;;3.34;66.36;100258.97;6242732;23;20397;-90
2022/04/17 01:54:48;;;;;;;3.25;2.03;;;;;;;3.22;68.15;100249.13;6243315;23;20023;-90
2022/04/17 01:57:15;;;;;;;3.00;2.05;;;;;;;3.18;67.02;100240.44;6243644;23;20532;-90
2022/04/17 01:59:48;;;;;;;3.50;2.05;;;;;;;3.01;70.04;100228.19;6243835;23;20024;-91
2022/04/17 02:02:16;;;;;;;2.85;2.30;;;;;;;2.93;71.02;100231.44;6244198;23;20047;-91
2022/04/17 02:04:44;;;;;;;4.43;2.38;;;;;;;2.93;69.51;100242.19;6243780;23;20046;-91
2022/04/17 02:07:14;;;;;;;4.32;2.35;;;;;;;2.94;68.82;100238.53;6243836;23;20078;-90
2022/04/17 02:09:46;;;;;;;4.40;2.47;;;;;;;2.86;70.35;100235.56;6244528;23;20012;-90
2022/04/17 02:12:23;;;;;;;7.00;2.35;;;;;;;2.83;69.79;100236.63;6243095;23;20040;-91
2022/04/17 02:14:53;;;;;;;3.85;1.90;;;;;;;2.78;69.46;100222.63;6243879;23;20442;-90
2022/04/17 02:17:20;;;;;;;6.00;2.53;;;;;;;2.81;69.65;100222.44;6243076;23;20355;-89
2022/04/17 02:19:48;;;;;;;2.35;2.05;;;;;;;2.90;68.27;100212.84;6243296;23;20024;-89
2022/04/17 02:22:14;;;;;;;3.55;2.20;;;;;;;2.88;68.37;100213.97;6242908;23;20368;-90
2022/04/17 02:24:42;;;;;;;3.90;2.20;;;;;;;3.04;67.67;100222.63;6243202;23;20040;-90
2022/04/17 02:27:09;;;;;;;2.17;1.98;;;;;;;2.91;68.29;100200.31;6243142;23;20321;-90
2022/04/17 02:29:38;;;;;;;4.07;2.22;;;;;;;3.11;67.18;100223.03;6244024;23;20375;-90
2022/04/17 02:32:08;;;;;;;1.95;1.77;;;;;;;2.90;67.87;100188.69;6242154;23;20020;-90
2022/04/17 02:34:42;;;;;;;4.38;2.22;;;;;;;3.01;67.74;100199.53;6242966;23;20095;-90
2022/04/17 02:37:12;;;;;;;2.67;2.00;;;;;;;3.06;67.71;100214.47;6243461;23;20077;-90
2022/04/17 02:39:39;;;;;;;;;;;;;;;2.99;68.92;100219.41;6240728;23;20103;-90
2022/04/17 02:42:09;;;;;;;3.28;2.25;;;;;;;2.91;68.34;100203.84;6244715;23;19916;-90
2022/04/17 02:44:40;;;;;;;5.68;2.35;;;;;;;2.94;67.52;100206.31;6247374;23;20375;-92
2022/04/17 02:49:54;;;;;;;4.07;2.45;;;;;;;2.89;67.64;100212.97;6232450;23;20023;-90
2022/04/17 02:52:21;;;;;;;2.92;2.30;;;;;;;2.69;69.29;100201.81;6244464;23;20039;-90
2022/04/17 02:54:53;;;;;;;5.47;2.10;;;;;;;2.63;69.33;100202.25;6245691;23;20046;-91
2022/04/17 02:57:23;;;;;;;3.08;1.95;;;;;;;2.66;69.95;100204.72;6245347;23;20016;-90
2022/04/17 02:59:51;;;;;;;2.88;2.03;;;;;;;2.59;70.07;100196.25;6244902;23;20016;-90
2022/04/17 03:07:49;;;;;;;3.38;2.22;;;;;;;2.51;69.50;100192.38;6252830;23;20066;-90
2022/04/17 03:10:18;;;;;;;2.33;2.13;;;;;;;2.38;70.56;100178.97;6253667;23;20020;-90
2022/04/17 03:12:48;;;;;;;3.05;2.10;;;;;;;2.42;71.28;100194.72;6250454;23;20449;-90
2022/04/17 03:15:16;;;;;;;3.63;2.10;;;;;;;2.40;70.82;100199.38;6245963;23;20016;-91
2022/04/17 03:17:45;;;;;;;3.95;2.17;;;;;;;2.38;71.72;100203.13;6244651;23;20016;-91
2022/04/17 03:20:12;;;;;;;3.88;1.90;;;;;;;2.30;71.06;100180.38;6244424;23;20020;-90
2022/04/17 03:22:44;;;;;;;3.63;2.10;;;;;;;2.25;71.24;100179.81;6243693;23;20091;-89
2022/04/17 03:25:12;;;;;;;2.60;2.25;;;;;;;2.35;71.23;100223.00;6245226;23;20020;-90
2022/04/17 03:27:40;;;;;;;3.28;2.30;;;;;;;2.32;71.71;100220.53;6244832;23;20013;-90
2022/04/17 03:30:07;;;;;;;6.57;2.65;;;;;;;2.30;71.32;100200.97;6244109;23;20470;-90
2022/04/17 03:32:35;;;;;;;5.20;2.25;;;;;;;2.19;73.80;100201.72;6243323;23;20024;-90
2022/04/17 03:35:05;;;;;;;6.38;2.63;;;;;;;2.37;72.44;100207.63;6244728;23;20036;-90
2022/04/17 03:37:32;;;;;;;4.70;2.05;;;;;;;2.19;73.87;100216.97;6244356;23;20395;-90
2022/04/17 03:39:59;;;;;;;3.00;2.42;;;;;;;2.09;73.40;100206.00;6244298;23;20339;-90
2022/04/17 03:42:26;;;;;;;2.40;2.08;;;;;;;2.01;74.16;100184.22;6243976;23;20020;-90
2022/04/17 03:44:54;;;;;;;7.18;2.55;;;;;;;1.93;74.29;100193.63;6244324;23;20027;-90
2022/04/17 03:47:23;;;;;;;3.55;2.13;;;;;;;2.07;75.88;100221.34;6242887;23;20027;-89
2022/04/17 03:49:53;;;;;;;3.28;1.98;;;;;;;2.02;75.29;100213.59;6213206;23;20017;-90
2022/04/17 03:52:20;;;;;;;3.38;2.58;;;;;;;2.00;74.56;100195.88;6212999;23;20352;-89
2022/04/17 03:54:47;;;;;;;7.95;2.80;;;;;;;2.06;74.16;100198.16;6213970;23;20330;-90
2022/04/17 03:57:14;;;;;;;4.35;2.88;;;;;;;2.08;73.95;100197.09;6214531;23;20020;-90
2022/04/17 03:59:40;;;;;;;4.50;2.33;;;;;;;1.89;75.07;100185.91;6214151;23;20024;-89
2022/04/17 04:02:08;;;;;;;2.75;2.40;;;;;;;1.91;74.55;100198.25;6214077;23;20051;-89
2022/04/17 04:04:39;;;;;;;5.05;2.53;;;;;;;1.78;75.10;100170.56;6213510;23;20044;-90
2022/04/17 04:07:10;;;;;;;6.15;2.63;;;;;;;1.86;75.43;100188.78;6213270;23;20061;-90
2022/04/17 04:09:39;;;;;;;5.30;2.78;;;;;;;1.93;74.86;100180.22;6213391;23;20075;-89
2022/04/17 04:12:08;;;;;;;4.13;2.78;;;;;;;1.82;76.45;100181.91;6213561;23;20020;-90
2022/04/17 04:14:35;;;;;;;3.08;2.30;;;;;;;1.80;75.86;100191.91;6213299;23;20020;-89
2022/04/17 04:17:02;;;;;;;7.63;3.42;;;;;;;1.71;77.67;100182.63;6214661;23;20020;-89
2022/04/17 04:19:29;;;;;;;5.55;2.92;;;;;;;1.58;79.18;100174.56;6216083;23;20071;-90
2022/04/17 04:21:55;;;;;;;5.53;2.90;;;;;;;1.57;79.65;100183.56;6215710;23;20074;-91
2022/04/17 04:24:26;;;;;;;5.40;3.10;;;;;;;1.60;81.06;100191.41;6216058;23;20028;-91
2022/04/17 04:29:37;;;;;;;5.60;2.95;;;;;;;1.59;76.27;100170.91;6214175;23;20091;-90
2022/04/17 04:32:07;;;;;;;4.32;3.13;;;;;;;1.66;79.74;100185.63;6215820;23;20115;-90
2022/04/17 04:34:35;;;;;;;6.05;2.85;;;;;;;1.59;79.44;100173.59;6215504;23;20104;-90
2022/04/17 04:37:05;;;;;;;4.43;2.90;;;;;;;1.44;81.88;100172.78;6215537;23;20017;-90
2022/04/17 04:39:33;;;;;;;4.55;2.85;;;;;;;1.49;82.64;100188.56;6215277;23;20071;-89
2022/04/17 04:42:00;;;;;;;5.93;3.35;;;;;;;1.23;83.92;100162.56;6215647;23;20021;-90
2022/04/17 04:44:30;;;;;;;3.35;2.90;;;;;;;1.38;84.59;100191.97;6214879;23;20091;-89
2022/04/17 04:46:59;;;;;;;;;;;;;;;1.34;85.05;100196.69;6216559;23;20488;-90
2022/04/17 04:49:33;;;;;;;4.75;3.00;;;;;;;1.17;84.49;100179.00;6217448;23;19916;-90
2022/04/17 04:52:05;;;;;;;9.77;3.60;;;;;;;1.29;83.37;100181.84;6217395;23;20032;-90
2022/04/17 04:54:34;;;;;;;5.28;3.38;;;;;;;1.42;84.48;100197.00;6217696;23;20070;-90
2022/04/17 04:57:04;;;;;;;4.35;2.80;;;;;;;1.42;85.17;100196.16;6216537;23;20016;-90
2022/04/17 04:59:31;;;;;;;6.28;2.95;;;;;;;1.48;81.03;100168.97;6215617;23;20024;-90
2022/04/17 05:02:02;;;;;;;5.78;3.15;;;;;;;1.69;79.49;100168.50;6215473;23;20023;-91
2022/04/17 05:04:29;;;;;;;5.93;3.30;;;;;;;1.91;79.57;100187.53;6215314;23;20280;-83
2022/04/17 05:06:56;;;;;;;5.50;3.10;;;;;;;1.94;80.36;100192.69;6214331;23;20025;-86
2022/04/17 05:09:29;;;;;;;4.93;2.97;;;;;;;2.11;77.58;100202.25;6218926;23;20108;-92
2022/04/17 05:12:10;;;;;;;4.53;2.63;;;;;;;2.22;77.47;100198.81;6219006;23;20021;-91
2022/04/17 05:14:41;;;;;;;5.22;2.70;;;;;;;2.25;75.59;100185.19;6218075;23;20016;-92
2022/04/17 05:17:15;;;;;;;4.45;3.78;;;;;;;2.25;76.02;100162.88;6219271;23;20086;-92
2022/04/17 05:19:45;;;;;;;4.10;3.00;;;;;;;2.51;74.14;100198.59;6218350;23;20021;-91
2022/04/17 05:22:16;;;;;;;5.90;2.60;;;;;;;2.46;74.64;100155.13;6218524;23;20099;-92
2022/04/17 05:24:43;;;;;;;3.90;2.47;;;;;;;2.61;73.04;100171.97;6217276;23;20025;-91
2022/04/17 05:27:15;;;;;;;5.60;3.17;;;;;;;2.61;73.32;100153.19;6216568;23;20094;-92
2022/04/17 05:29:46;;;;;;;3.90;3.22;;;;;;;2.89;72.21;100188.78;6217638;23;20471;-92
2022/04/17 05:32:13;;;;;;;3.65;2.67;;;;;;;2.87;72.46;100170.09;6218640;23;20043;-92
2022/04/17 05:34:40;;;;;;;4.28;3.70;;;;;;;2.96;71.14;100171.28;6218481;23;20023;-91
2022/04/17 05:37:08;;;;;;;3.45;2.38;;;;;;;3.33;69.82;100182.03;6225114;23;20027;-90
2022/04/17 05:39:38;;;;;;;5.40;2.90;;;;;;;3.54;70.01;100177.72;6228213;23;20020;-90
2022/04/17 05:42:05;;;;;;;2.80;2.50;;;;;;;3.83;67.80;100180.03;6220898;23;20016;-91
2022/04/17 05:44:35;;;;;;;7.25;2.42;;;;;;;4.39;64.94;100200.00;6217248;23;20063;-89
2022/04/17 05:47:02;;;;;;;;;;;;;;;4.88;63.65;100203.38;6218118;23;20028;-91
2022/04/17 05:49:29;;;;;;;3.00;2.60;;;;;;;5.01;59.98;100168.19;6218128;23;19915;-91
2022/04/17 05:51:58;;;;;;;5.10;2.75;;;;;;;5.52;59.22;100188.31;6217381;23;20017;-91
2022/04/17 05:54:26;;;;;;;3.83;2.13;;;;;;;6.15;56.79;100180.34;6216905;23;20023;-91
2022/04/17 05:56:52;;;;;;;3.20;2.35;;;;;;;6.77;56.09;100183.94;6216681;23;20027;-90
2022/04/17 05:59:22;;;;;;;2.78;2.30;;;;;;;7.11;53.88;100177.41;6217597;23;20479;-91
2022/04/17 06:01:51;;;;;;;3.83;2.00;;;;;;;7.17;53.42;100164.16;6217410;23;20017;-91
2022/04/17 06:04:18;;;;;;;4.18;2.50;;;;;;;7.28;52.19;100165.06;6217067;23;20125;-92
2022/04/17 06:06:51;;;;;;;3.88;2.30;;;;;;;7.40;52.79;100172.88;6217105;23;20021;-92
2022/04/17 06:09:26;;;;;;;2.03;1.77;;;;;;;7.65;51.01;100158.97;6217027;23;20017;-92
2022/04/17 06:12:01;;;;;;;5.00;2.38;;;;;;;7.53;51.30;100166.38;6217902;23;20023;-93
2022/04/17 06:14:29;;;;;;;2.85;2.17;;;;;;;7.88;50.36;100167.66;6218051;23;20017;-92
2022/04/17 06:17:03;;;;;;;4.60;2.10;;;;;;;8.27;48.85;100176.59;6217213;23;20020;-92
2022/04/17 06:19:35;;;;;;;2.92;2.00;;;;;;;8.44;48.11;100161.47;6217248;23;20500;-92
2022/04/17 06:22:07;;;;;;;5.18;2.10;;;;;;;8.71;47.22;100140.00;6190327;23;20024;-91
2022/04/17 06:24:35;;;;;;;3.95;1.90;;;;;;;8.90;47.53;100150.75;6217366;23;20392;-91
2022/04/17 06:27:05;;;;;;;5.15;2.22;;;;;;;8.91;47.36;100157.03;6216928;23;20021;-92
2022/04/17 06:30:27;;;;;;;2.83;1.92;;;;;;;8.88;47.55;100150.03;6217936;23;20028;-93
2022/04/17 06:33:16;;;;;;;3.78;1.80;;;;;;;9.11;46.41;100152.34;6218187;23;20389;-93
2022/04/17 09:00:45;;;;;;;3.45;1.88;;;;;;;11.38;41.75;100044.66;6197292;23;20441;-90
2022/04/17 09:03:13;;;;;;;3.05;1.50;;;;;;;11.24;41.43;100040.72;6208776;23;20024;-90
2022/04/17 09:05:40;;;;;;;5.47;1.50;;;;;;;11.27;41.55;100011.28;6214345;23;20397;-88
2022/04/17 09:18:29;;;;;;;1.52;1.05;;;;;;;11.07;38.27;100001.75;6124008;23;20018;-92
2022/04/17 09:21:11;;;;;;;2.38;1.17;;;;;;;11.00;38.22;100015.16;6215275;23;20020;-93
2022/04/17 09:23:40;;;;;;;2.88;1.30;;;;;;;10.91;40.13;100000.69;6216563;23;20031;-84
2022/04/17 09:47:39;;;;;;;;;;;;;;;;;;;;;
2022/04/17 09:50:18;;;;;;;3.03;1.20;;;;;;;11.89;36.91;99979.09;6247257;23;20091;-93
2022/04/17 09:53:06;;;;;;;2.92;1.10;;;;;;;11.89;36.14;99960.84;6248749;23;20087;-90
2022/04/17 09:55:41;;;;;;;2.88;1.10;;;;;;;12.07;36.59;99971.56;6248540;23;20439;-92
2022/04/17 10:04:45;;;;;;;2.30;1.13;;;;;;;12.00;36.01;99946.91;6249044;23;20026;-91
2022/04/17 10:10:52;;;;;;;2.00;0.95;;;;;;;11.85;36.46;99940.47;6230748;23;20022;-93
2022/04/17 10:13:51;;;;;;;6.97;1.00;;;;;;;11.91;35.35;99947.94;6248174;23;20046;-93
2022/04/17 10:26:48;;;;;;;3.20;1.30;;;;;;;12.10;34.04;99940.41;6256695;23;20031;-94
2022/04/17 10:37:03;;;;;;;3.80;1.00;;;;;;;12.70;32.38;99915.19;6258280;23;20352;-95
2022/04/17 10:43:15;;;;;;;2.40;1.15;;;;;;;12.84;32.82;99931.81;6096758;23;19923;-93
2022/04/17 10:50:01;;;;;;;6.38;2.05;;;;;;;13.40;35.35;99916.06;5984814;24;20033;-93
2022/04/17 10:52:45;;;;;;;3.70;1.27;;;;;;;13.16;32.99;99888.94;6003813;23;20036;-94
2022/04/17 11:36:46;;;;;;;1.98;0.80;;;;;;;14.75;33.33;99834.75;6037599;23;20030;-93
2022/04/17 11:39:38;;;;;;;14.15;6.80;;;;;;;14.79;34.09;99849.75;6039436;23;20031;-94
2022/04/17 11:42:18;;;;;;;5.20;3.15;;;;;;;14.99;33.82;99821.72;6148668;23;20018;-92
2022/04/17 11:44:52;;;;;;;6.63;3.05;;;;;;;15.38;31.13;99836.75;6155301;23;20041;-94
2022/04/17 11:47:38;;;;;;;1.85;1.00;;;;;;;15.41;32.21;99825.41;6155105;23;20021;-93
2022/04/17 11:50:23;;;;;;;2.78;1.10;;;;;;;15.62;31.76;99812.69;6154839;23;20013;-92
2022/04/17 11:53:20;;;;;;;2.13;1.10;;;;;;;15.57;30.80;99816.88;6174076;23;20047;-92
2022/04/17 11:56:01;;;;;;;3.80;1.85;;;;;;;15.42;30.68;99807.09;6216554;23;20032;-93
2022/04/17 11:58:35;;;;;;;0.95;0.80;;;;;;;15.37;31.75;99811.25;6216586;23;20019;-93
2022/04/17 12:01:09;;;;;;;1.77;1.25;;;;;;;15.36;31.15;99811.47;6215753;23;20037;-91
2022/04/17 12:03:55;;;;;;;3.45;1.00;;;;;;;15.05;31.03;99796.28;6214831;23;20088;-92
2022/04/17 12:06:32;;;;;;;1.25;0.90;;;;;;;15.48;30.55;99793.41;6216089;23;20021;-92
2022/04/17 12:09:29;;;;;;;3.80;1.30;;;;;;;15.05;30.50;99782.56;6216255;23;20087;-92
2022/04/17 12:11:59;;;;;;;1.65;0.90;;;;;;;15.28;32.05;99781.47;6216686;23;20021;-93
2022/04/17 12:14:35;;;;;;;2.03;1.00;;;;;;;15.46;31.96;99801.00;6216895;23;20021;-93
2022/04/17 12:17:09;;;;;;;2.90;1.10;;;;;;;15.58;30.86;99774.72;6216687;23;20051;-95
2022/04/17 12:19:39;;;;;;;1.80;1.05;;;;;;;15.43;30.09;99790.44;6213334;23;20017;-92
2022/04/17 12:22:17;;;;;;;1.48;1.08;;;;;;;15.45;31.97;99766.41;6215659;23;20023;-93
2022/04/17 12:24:47;;;;;;;3.08;1.08;;;;;;;15.55;30.06;99783.34;6216053;23;20091;-92
2022/04/17 12:27:24;;;;;;;;;;;;;;;;;;;;;
2022/04/17 12:30:02;;;;;;;1.23;1.05;;;;;;;15.82;30.27;99757.97;6215995;23;19931;-93
2022/04/17 12:32:36;;;;;;;2.92;0.93;;;;;;;15.83;31.21;99763.25;6215546;23;20036;-92
2022/04/17 12:35:05;;;;;;;2.67;1.08;;;;;;;15.55;29.74;99761.44;6215124;23;20079;-91
2022/04/17 12:38:17;;;;;;;3.65;1.15;;;;;;;15.55;29.40;99750.47;6216523;23;20455;-92
2022/04/17 12:40:59;;;;;;;2.58;1.00;;;;;;;15.83;29.53;99755.03;6216477;23;20016;-91
2022/04/17 12:46:27;;;;;;;1.48;0.73;;;;;;;16.00;30.04;99736.31;6214355;23;20060;-89
2022/04/17 12:49:10;;;;;;;5.40;1.20;;;;;;;15.25;30.17;99732.56;6248335;23;20110;-93
2022/04/17 12:51:38;;;;;;;1.50;0.80;;;;;;;15.60;30.82;99741.63;6248113;23;20024;-92
2022/04/17 12:54:12;;;;;;;2.45;0.90;;;;;;;15.75;28.60;99738.75;6248021;23;20095;-93
2022/04/17 12:56:44;;;;;;;1.83;0.90;;;;;;;15.92;29.93;99731.84;6248632;23;20027;-92
2022/04/17 12:59:25;;;;;;;1.40;0.90;;;;;;;16.20;26.45;99697.97;6244787;23;20012;-92
2022/04/17 13:01:56;;;;;;;2.47;1.08;;;;;;;16.53;28.59;99708.16;6247811;23;20046;-92
2022/04/17 13:04:30;;;;;;;1.25;0.70;;;;;;;16.20;25.45;99717.19;6247161;23;20452;-91
2022/04/17 13:07:15;;;;;;;1.17;0.95;;;;;;;16.22;27.66;99716.97;6243235;23;20444;-92
2022/04/17 13:10:09;;;;;;;0.82;0.80;;;;;;;16.32;28.16;99706.44;6247569;23;20460;-93
2022/04/17 13:12:47;;;;;;;1.38;1.10;;;;;;;16.39;26.77;99706.44;6244215;23;20035;-92
2022/04/17 13:15:31;;;;;;;1.85;1.00;;;;;;;16.46;28.04;99707.28;6247748;23;20091;-92
2022/04/17 13:18:07;;;;;;;1.48;0.90;;;;;;;16.42;26.23;99690.41;6248190;23;20020;-92
2022/04/17 13:20:56;;;;;;;0.93;0.73;;;;;;;16.26;26.02;99685.34;6248314;23;20023;-92
2022/04/17 13:23:42;;;;;;;2.80;1.27;;;;;;;16.43;23.76;99697.56;6248186;23;20024;-93
2022/04/17 13:29:44;;;;;;;1.08;0.80;;;;;;;16.72;24.60;99676.22;6244668;23;20043;-93
2022/04/17 13:32:29;;;;;;;1.42;0.85;;;;;;;16.66;28.78;99671.59;6249179;23;20344;-93
2022/04/17 13:35:11;;;;;;;3.03;1.40;;;;;;;16.43;25.86;99667.38;6248430;23;20027;-94
2022/04/17 13:40:36;;;;;;;1.27;0.85;;;;;;;16.26;25.81;99657.91;6248800;23;20347;-94
2022/04/17 13:43:13;;;;;;;1.77;0.88;;;;;;;16.34;28.70;99660.41;6248287;23;20028;-94
2022/04/17 13:45:50;;;;;;;2.22;1.25;;;;;;;16.15;26.61;99648.38;6248078;23;20524;-93
2022/04/17 13:48:20;;;;;;;1.95;1.33;;;;;;;16.23;25.40;99656.41;6247747;23;20019;-93
2022/04/17 13:50:54;;;;;;;1.63;0.80;;;;;;;16.33;25.58;99646.91;6244407;23;20047;-92
2022/04/17 13:53:24;;;;;;;0.80;0.70;;;;;;;16.63;27.14;99639.94;6248406;23;20119;-93
2022/04/17 13:55:55;;;;;;;2.00;0.70;;;;;;;17.11;27.62;99643.47;6248800;23;20074;-93
2022/04/17 13:58:29;;;;;;;1.02;0.70;;;;;;;17.15;25.60;99639.22;6248223;23;20020;-92
2022/04/17 14:01:06;;;;;;;0.98;0.80;;;;;;;16.86;25.91;99626.78;6248301;23;20042;-92
2022/04/17 14:03:41;;;;;;;6.65;1.00;;;;;;;16.97;26.01;99609.69;6247776;23;20024;-92
2022/04/17 14:06:22;;;;;;;2.03;1.00;;;;;;;16.90;27.21;99608.88;6248169;23;20020;-93
2022/04/17 14:08:54;;;;;;;1.58;1.08;;;;;;;16.94;27.15;99610.13;6247599;23;20016;-92
2022/04/17 14:11:25;;;;;;;1.35;0.60;;;;;;;17.03;25.95;99608.00;6248403;23;20096;-92
2022/04/17 14:14:00;;;;;;;1.20;0.70;;;;;;;16.71;26.82;99602.31;6249664;23;20016;-92
2022/04/17 14:16:30;;;;;;;1.30;0.90;;;;;;;16.62;26.76;99604.47;6248763;23;20050;-93
2022/04/17 14:19:04;;;;;;;2.75;0.90;;;;;;;16.87;27.98;99607.38;6246960;23;20016;-93
2022/04/17 14:21:34;;;;;;;2.92;0.90;;;;;;;16.71;27.71;99589.47;6242951;23;20095;-92
2022/04/17 14:24:02;;;;;;;2.53;1.15;;;;;;;16.76;26.92;99597.06;6247424;23;20023;-92
2022/04/17 14:26:36;;;;;;;2.40;0.93;;;;;;;16.52;27.88;99585.69;6246733;23;20016;-93
2022/04/17 14:29:10;;;;;;;1.15;0.75;;;;;;;16.55;25.29;99598.97;6247763;23;20336;-92
2022/04/17 14:31:59;;;;;;;1.65;0.60;;;;;;;16.26;25.43;99592.06;6247566;23;20391;-92
2022/04/17 14:37:13;;;;;;;1.58;1.05;;;;;;;16.88;25.96;99576.13;6242100;23;20055;-92
2022/04/17 14:39:45;;;;;;;3.63;0.82;;;;;;;16.83;27.19;99581.41;6245571;23;20020;-92
2022/04/17 14:42:19;;;;;;;1.08;0.77;;;;;;;16.83;27.96;99570.44;6247410;23;20391;-91
2022/04/17 14:44:56;;;;;;;1.45;0.90;;;;;;;16.71;28.34;99563.91;6269993;22;20050;-92
2022/04/17 14:47:40;;;;;;;3.30;0.95;;;;;;;16.46;27.49;99557.19;6240654;23;20054;-93
2022/04/17 14:50:21;;;;;;;3.40;0.85;;;;;;;16.42;25.96;99560.56;6262172;23;20031;-92
2022/04/17 14:53:09;;;;;;;0.70;0.65;;;;;;;16.45;26.50;99555.53;6266009;23;20076;-93
2022/04/17 14:55:42;;;;;;;2.90;0.70;;;;;;;16.38;28.34;99542.84;6260222;23;20347;-93
2022/04/17 14:58:14;;;;;;;2.13;0.90;;;;;;;16.64;27.19;99539.22;6250300;23;20020;-92
2022/04/17 15:01:00;;;;;;;0.85;0.60;;;;;;;16.85;26.20;99535.34;6220752;23;20016;-95
2022/04/17 15:03:35;;;;;;;1.58;0.90;;;;;;;17.20;26.75;99550.66;6247782;23;20095;-92
2022/04/17 15:06:15;;;;;;;2.38;0.88;;;;;;;17.09;26.40;99535.72;6248195;23;20016;-92
2022/04/17 15:08:41;;;;;;;;;;;;;;;16.97;26.34;99557.53;6246582;23;20027;-91
2022/04/17 15:11:20;;;;;;;1.35;0.90;;;;;;;16.57;27.45;99524.66;6248238;23;19954;-90
2022/04/17 15:13:55;;;;;;;3.33;1.43;;;;;;;16.98;26.77;99545.44;6247530;23;20135;-91
2022/04/17 15:16:33;;;;;;;1.50;1.00;;;;;;;16.72;27.88;99521.66;6248806;23;20050;-92
2022/04/17 15:19:16;;;;;;;1.52;0.88;;;;;;;16.66;25.51;99530.78;6250177;23;20081;-92
2022/04/17 15:21:47;;;;;;;1.55;0.70;;;;;;;16.44;25.93;99531.88;6231757;23;20039;-92
2022/04/17 15:30:03;;;;;;;1.13;0.80;;;;;;;15.99;27.63;99528.13;6250313;23;20016;-94
2022/04/17 15:32:30;;;;;;;2.10;0.77;;;;;;;16.14;29.94;99526.03;6247632;23;20350;-94
2022/04/17 15:35:15;;;;;;;1.48;0.85;;;;;;;16.05;26.99;99524.56;6247875;23;20023;-92
2022/04/17 15:37:49;;;;;;;2.58;1.42;;;;;;;16.33;27.00;99515.22;6247774;23;20468;-92
2022/04/17 15:40:23;;;;;;;1.15;0.90;;;;;;;16.45;27.84;99511.63;6247875;23;20074;-94
2022/04/17 15:48:54;;;;;;;10.60;1.92;;;;;;;16.46;25.33;99510.53;6121965;23;20025;-93
2022/04/17 15:51:50;;;;;;;1.30;0.73;;;;;;;16.18;27.12;99530.00;6231576;23;20036;-93
2022/04/17 15:54:27;;;;;;;2.58;1.17;;;;;;;15.92;27.22;99531.72;6246443;23;20035;-92
2022/04/17 16:00:14;;;;;;;0.80;0.68;;;;;;;15.89;28.38;99510.19;6245894;23;20021;-95
2022/04/17 16:02:58;;;;;;;3.22;1.05;;;;;;;15.90;27.94;99509.16;6246006;23;20050;-92
2022/04/17 16:05:37;;;;;;;;;;;;;;;;;;;;;
2022/04/17 16:11:53;;;;;;;1.33;1.00;;;;;;;15.93;26.08;99505.97;6145740;23;20024;-95
2022/04/17 17:19:34;;;;;;;1.95;0.90;;;;;;;13.15;32.07;99491.44;6187709;23;20017;-92
2022/04/17 17:22:05;;;;;;;2.30;0.88;;;;;;;13.13;31.50;99482.56;6158026;23;20022;-93
2022/04/17 17:24:32;;;;;;;1.98;0.93;;;;;;;13.05;32.45;99481.69;6157609;23;20305;-90
2022/04/17 17:26:59;;;;;;;2.20;0.75;;;;;;;12.90;31.61;99469.94;6158005;23;20028;-90
2022/04/17 17:29:26;;;;;;;2.08;1.02;;;;;;;12.99;32.04;99490.63;6157430;23;20028;-90
2022/04/17 17:31:55;;;;;;;1.10;0.82;;;;;;;12.86;31.62;99494.03;6157659;23;20025;-88
2022/04/17 17:34:24;;;;;;;3.42;1.10;;;;;;;12.68;31.31;99488.16;6157687;23;20018;-91
2022/04/17 17:37:02;;;;;;;1.92;0.98;;;;;;;12.66;31.46;99479.31;6158184;23;20088;-90
2022/04/17 17:39:31;;;;;;;1.73;0.85;;;;;;;12.68;31.89;99501.81;6158116;23;20018;-91
2022/04/17 17:42:26;;;;;;;1.83;0.85;;;;;;;12.60;32.73;99486.41;6159433;23;20022;-92
2022/04/17 17:48:24;;;;;;;1.67;1.00;;;;;;;12.33;32.33;99479.72;6157798;23;20146;-90
2022/04/17 17:50:56;;;;;;;3.13;1.17;;;;;;;12.21;33.49;99484.81;6158022;23;20024;-91
2022/04/17 17:53:37;;;;;;;2.75;0.98;;;;;;;12.14;32.88;99472.97;6157139;23;20044;-91
2022/04/17 17:58:59;;;;;;;3.45;2.25;;;;;;;11.92;33.26;99471.97;6147358;23;20066;-91
2022/04/17 18:01:38;;;;;;;3.97;1.13;;;;;;;11.96;33.56;99489.69;6156856;23;20363;-91
2022/04/17 18:04:18;;;;;;;2.70;1.03;;;;;;;11.90;34.61;99491.22;6159506;23;20021;-90
2022/04/17 18:17:18;;;;;;;2.13;0.93;;;;;;;11.28;36.22;99481.41;6091997;23;20036;-91
2022/04/17 18:27:03;;;;;;;0.88;0.85;;;;;;;10.88;39.18;99505.97;6065807;23;20033;-91
2022/04/17 18:36:00;;;;;;;1.90;1.08;;;;;;;10.10;40.23;99494.88;5989296;23;20372;-87
2022/04/17 18:42:32;;;;;;;1.88;1.02;;;;;;;9.64;42.69;99499.19;6063364;23;20109;-92
2022/04/17 18:48:15;;;;;;;1.75;0.82;;;;;;;9.45;43.59;99505.81;6155732;23;20029;-93
2022/04/17 18:53:59;;;;;;;2.28;1.60;;;;;;;9.25;44.29;99513.44;6157885;23;20021;-91